sensor_id;sensor_type;location;lat;lon;timestamp;P1;durP1;ratioP1;P2;durP2;ratioP2
1699;SDS011;847;48.058;7.810;2023-02-13T00:00:35;20.67;;;14.70;;
1699;SDS011;847;48.058;7.810;2023-02-13T00:03:02;17.23;;;15.03;;
1699;SDS011;847;48.058;7.810;2023-02-13T00:05:29;18.40;;;14.77;;
1699;SDS011;847;48.058;7.810;2023-02-13T00:07:56;21.53;;;15.13;;
1699;SDS011;847;48.058;7.810;2023-02-13T00:10:23;17.63;;;15.70;;
1699;SDS011;847;48.058;7.810;2023-02-13T00:12:51;15.90;;;14.10;;
1699;SDS011;847;48.058;7.810;2023-02-13T00:15:18;19.57;;;14.80;;
1699;SDS011;847;48.058;7.810;2023-02-13T00:17:45;17.60;;;14.33;;
1699;SDS011;847;48.058;7.810;2023-02-13T00:20:11;18.67;;;14.00;;
1699;SDS011;847;48.058;7.810;2023-02-13T00:22:38;19.47;;;14.47;;
1699;SDS011;847;48.058;7.810;2023-02-13T00:25:06;23.43;;;15.00;;
1699;SDS011;847;48.058;7.810;2023-02-13T00:27:33;23.00;;;15.73;;
1699;SDS011;847;48.058;7.810;2023-02-13T00:30:01;19.50;;;16.43;;
1699;SDS011;847;48.058;7.810;2023-02-13T00:32:28;16.93;;;14.40;;
1699;SDS011;847;48.058;7.810;2023-02-13T00:34:55;18.83;;;15.37;;
1699;SDS011;847;48.058;7.810;2023-02-13T00:37:22;22.40;;;15.10;;
1699;SDS011;847;48.058;7.810;2023-02-13T00:39:49;19.20;;;14.60;;
1699;SDS011;847;48.058;7.810;2023-02-13T00:42:16;17.07;;;14.50;;
1699;SDS011;847;48.058;7.810;2023-02-13T00:44:43;19.80;;;14.90;;
1699;SDS011;847;48.058;7.810;2023-02-13T00:47:11;20.10;;;15.80;;
1699;SDS011;847;48.058;7.810;2023-02-13T00:49:38;19.13;;;15.30;;
1699;SDS011;847;48.058;7.810;2023-02-13T00:52:05;17.13;;;13.63;;
1699;SDS011;847;48.058;7.810;2023-02-13T00:54:32;20.03;;;15.40;;
1699;SDS011;847;48.058;7.810;2023-02-13T00:56:59;16.97;;;14.47;;
1699;SDS011;847;48.058;7.810;2023-02-13T00:59:26;18.87;;;15.20;;
1699;SDS011;847;48.058;7.810;2023-02-13T01:01:52;19.47;;;14.57;;
1699;SDS011;847;48.058;7.810;2023-02-13T01:04:21;16.53;;;13.53;;
1699;SDS011;847;48.058;7.810;2023-02-13T01:06:47;17.00;;;12.90;;
1699;SDS011;847;48.058;7.810;2023-02-13T01:09:14;16.90;;;12.83;;
1699;SDS011;847;48.058;7.810;2023-02-13T01:11:41;14.23;;;11.80;;
1699;SDS011;847;48.058;7.810;2023-02-13T01:14:07;18.30;;;13.97;;
1699;SDS011;847;48.058;7.810;2023-02-13T01:16:34;17.30;;;12.40;;
1699;SDS011;847;48.058;7.810;2023-02-13T01:19:01;16.53;;;13.27;;
1699;SDS011;847;48.058;7.810;2023-02-13T01:21:30;17.97;;;13.07;;
1699;SDS011;847;48.058;7.810;2023-02-13T01:23:57;18.58;;;13.85;;
1699;SDS011;847;48.058;7.810;2023-02-13T01:26:27;20.37;;;14.80;;
1699;SDS011;847;48.058;7.810;2023-02-13T01:28:54;19.30;;;15.03;;
1699;SDS011;847;48.058;7.810;2023-02-13T01:31:22;17.05;;;14.90;;
1699;SDS011;847;48.058;7.810;2023-02-13T01:33:49;19.92;;;15.38;;
1699;SDS011;847;48.058;7.810;2023-02-13T01:36:16;19.43;;;15.70;;
1699;SDS011;847;48.058;7.810;2023-02-13T01:38:44;17.25;;;14.07;;
1699;SDS011;847;48.058;7.810;2023-02-13T01:41:10;18.90;;;14.52;;
1699;SDS011;847;48.058;7.810;2023-02-13T01:43:46;18.87;;;14.60;;
1699;SDS011;847;48.058;7.810;2023-02-13T01:46:16;17.40;;;14.30;;
1699;SDS011;847;48.058;7.810;2023-02-13T01:48:47;15.60;;;12.73;;
1699;SDS011;847;48.058;7.810;2023-02-13T01:51:17;18.35;;;13.85;;
1699;SDS011;847;48.058;7.810;2023-02-13T01:53:50;19.10;;;13.57;;
1699;SDS011;847;48.058;7.810;2023-02-13T01:56:21;19.50;;;14.00;;
1699;SDS011;847;48.058;7.810;2023-02-13T01:58:51;14.70;;;12.20;;
1699;SDS011;847;48.058;7.810;2023-02-13T02:01:21;17.83;;;12.98;;
1699;SDS011;847;48.058;7.810;2023-02-13T02:03:50;15.70;;;13.50;;
1699;SDS011;847;48.058;7.810;2023-02-13T02:06:22;15.73;;;12.77;;
1699;SDS011;847;48.058;7.810;2023-02-13T02:08:52;18.23;;;14.07;;
1699;SDS011;847;48.058;7.810;2023-02-13T02:11:24;17.93;;;13.97;;
1699;SDS011;847;48.058;7.810;2023-02-13T02:13:57;16.90;;;12.17;;
1699;SDS011;847;48.058;7.810;2023-02-13T02:16:24;17.95;;;13.15;;
1699;SDS011;847;48.058;7.810;2023-02-13T02:18:51;18.17;;;13.07;;
1699;SDS011;847;48.058;7.810;2023-02-13T02:21:29;16.93;;;14.40;;
1699;SDS011;847;48.058;7.810;2023-02-13T02:33:29;18.50;;;12.03;;
1699;SDS011;847;48.058;7.810;2023-02-13T02:36:08;17.98;;;12.77;;
1699;SDS011;847;48.058;7.810;2023-02-13T02:38:55;15.20;;;11.35;;
1699;SDS011;847;48.058;7.810;2023-02-13T02:41:34;18.88;;;11.30;;
1699;SDS011;847;48.058;7.810;2023-02-13T02:44:16;13.68;;;10.50;;
1699;SDS011;847;48.058;7.810;2023-02-13T02:46:55;13.23;;;10.43;;
1699;SDS011;847;48.058;7.810;2023-02-13T02:49:49;16.40;;;11.88;;
1699;SDS011;847;48.058;7.810;2023-02-13T02:52:27;13.20;;;9.73;;
1699;SDS011;847;48.058;7.810;2023-02-13T02:54:59;14.90;;;11.80;;
1699;SDS011;847;48.058;7.810;2023-02-13T02:57:33;16.65;;;11.63;;
1699;SDS011;847;48.058;7.810;2023-02-13T03:00:26;15.87;;;11.67;;
1699;SDS011;847;48.058;7.810;2023-02-13T03:03:14;13.60;;;11.43;;
1699;SDS011;847;48.058;7.810;2023-02-13T03:06:03;15.60;;;12.85;;
1699;SDS011;847;48.058;7.810;2023-02-13T03:08:38;16.67;;;13.77;;
1699;SDS011;847;48.058;7.810;2023-02-13T03:11:24;15.10;;;12.38;;
1699;SDS011;847;48.058;7.810;2023-02-13T03:14:09;15.30;;;13.13;;
1699;SDS011;847;48.058;7.810;2023-02-13T03:16:39;17.98;;;14.00;;
1699;SDS011;847;48.058;7.810;2023-02-13T03:19:27;18.98;;;14.25;;
1699;SDS011;847;48.058;7.810;2023-02-13T03:22:23;17.20;;;13.70;;
1699;SDS011;847;48.058;7.810;2023-02-13T03:24:59;16.67;;;13.30;;
1699;SDS011;847;48.058;7.810;2023-02-13T03:27:34;16.10;;;13.38;;
1699;SDS011;847;48.058;7.810;2023-02-13T03:30:29;15.35;;;12.93;;
1699;SDS011;847;48.058;7.810;2023-02-13T03:33:05;16.20;;;13.48;;
1699;SDS011;847;48.058;7.810;2023-02-13T03:35:48;14.93;;;11.68;;
1699;SDS011;847;48.058;7.810;2023-02-13T03:38:42;15.47;;;11.77;;
1699;SDS011;847;48.058;7.810;2023-02-13T03:41:14;14.63;;;12.32;;
1699;SDS011;847;48.058;7.810;2023-02-13T03:43:54;17.33;;;13.05;;
1699;SDS011;847;48.058;7.810;2023-02-13T03:46:26;16.48;;;12.57;;
1699;SDS011;847;48.058;7.810;2023-02-13T03:48:56;17.52;;;13.50;;
1699;SDS011;847;48.058;7.810;2023-02-13T03:51:42;18.27;;;12.60;;
1699;SDS011;847;48.058;7.810;2023-02-13T03:54:16;12.95;;;11.45;;
1699;SDS011;847;48.058;7.810;2023-02-13T03:57:01;15.15;;;12.45;;
1699;SDS011;847;48.058;7.810;2023-02-13T03:59:46;15.15;;;12.27;;
1699;SDS011;847;48.058;7.810;2023-02-13T04:02:13;16.20;;;12.73;;
1699;SDS011;847;48.058;7.810;2023-02-13T04:04:47;16.20;;;13.18;;
1699;SDS011;847;48.058;7.810;2023-02-13T04:07:18;14.82;;;12.73;;
1699;SDS011;847;48.058;7.810;2023-02-13T04:09:55;17.88;;;13.38;;
1699;SDS011;847;48.058;7.810;2023-02-13T04:12:26;14.23;;;11.63;;
1699;SDS011;847;48.058;7.810;2023-02-13T04:15:03;14.80;;;11.63;;
1699;SDS011;847;48.058;7.810;2023-02-13T04:17:37;17.67;;;13.45;;
1699;SDS011;847;48.058;7.810;2023-02-13T04:20:08;14.70;;;11.80;;
1699;SDS011;847;48.058;7.810;2023-02-13T04:22:40;16.27;;;11.80;;
1699;SDS011;847;48.058;7.810;2023-02-13T04:25:10;14.60;;;11.50;;
1699;SDS011;847;48.058;7.810;2023-02-13T04:27:37;12.95;;;10.75;;
1699;SDS011;847;48.058;7.810;2023-02-13T04:30:05;14.27;;;11.02;;
1699;SDS011;847;48.058;7.810;2023-02-13T04:32:33;14.20;;;11.35;;
1699;SDS011;847;48.058;7.810;2023-02-13T04:35:00;14.40;;;10.70;;
1699;SDS011;847;48.058;7.810;2023-02-13T04:37:27;12.38;;;10.85;;
1699;SDS011;847;48.058;7.810;2023-02-13T04:39:53;10.03;;;8.67;;
1699;SDS011;847;48.058;7.810;2023-02-13T04:42:21;12.90;;;10.63;;
1699;SDS011;847;48.058;7.810;2023-02-13T04:44:48;10.30;;;9.30;;
1699;SDS011;847;48.058;7.810;2023-02-13T04:47:15;13.10;;;10.30;;
1699;SDS011;847;48.058;7.810;2023-02-13T04:49:41;12.18;;;8.65;;
1699;SDS011;847;48.058;7.810;2023-02-13T04:52:08;10.15;;;8.45;;
1699;SDS011;847;48.058;7.810;2023-02-13T04:54:35;9.15;;;8.07;;
1699;SDS011;847;48.058;7.810;2023-02-13T04:57:02;14.05;;;8.93;;
1699;SDS011;847;48.058;7.810;2023-02-13T04:59:30;9.53;;;8.30;;
1699;SDS011;847;48.058;7.810;2023-02-13T05:01:57;11.20;;;8.80;;
1699;SDS011;847;48.058;7.810;2023-02-13T05:04:24;10.45;;;8.63;;
1699;SDS011;847;48.058;7.810;2023-02-13T05:06:50;10.45;;;7.88;;
1699;SDS011;847;48.058;7.810;2023-02-13T05:09:17;12.27;;;9.57;;
1699;SDS011;847;48.058;7.810;2023-02-13T05:11:44;13.17;;;10.50;;
1699;SDS011;847;48.058;7.810;2023-02-13T05:14:11;13.05;;;10.60;;
1699;SDS011;847;48.058;7.810;2023-02-13T05:16:39;13.33;;;10.27;;
1699;SDS011;847;48.058;7.810;2023-02-13T05:19:06;17.00;;;10.73;;
1699;SDS011;847;48.058;7.810;2023-02-13T05:21:33;13.88;;;10.88;;
1699;SDS011;847;48.058;7.810;2023-02-13T05:24:17;22.95;;;12.90;;
1699;SDS011;847;48.058;7.810;2023-02-13T05:26:44;27.43;;;13.67;;
1699;SDS011;847;48.058;7.810;2023-02-13T05:29:10;26.00;;;15.15;;
1699;SDS011;847;48.058;7.810;2023-02-13T05:31:48;29.20;;;15.52;;
1699;SDS011;847;48.058;7.810;2023-02-13T05:34:16;27.23;;;18.17;;
1699;SDS011;847;48.058;7.810;2023-02-13T05:36:43;29.37;;;18.27;;
1699;SDS011;847;48.058;7.810;2023-02-13T05:39:09;31.42;;;18.02;;
1699;SDS011;847;48.058;7.810;2023-02-13T05:41:36;25.90;;;18.37;;
1699;SDS011;847;48.058;7.810;2023-02-13T05:44:03;40.92;;;20.08;;
1699;SDS011;847;48.058;7.810;2023-02-13T05:46:30;24.03;;;16.03;;
1699;SDS011;847;48.058;7.810;2023-02-13T05:48:58;54.33;;;18.00;;
1699;SDS011;847;48.058;7.810;2023-02-13T05:51:25;33.90;;;16.70;;
1699;SDS011;847;48.058;7.810;2023-02-13T05:53:52;27.23;;;17.50;;
1699;SDS011;847;48.058;7.810;2023-02-13T05:56:19;24.60;;;16.80;;
1699;SDS011;847;48.058;7.810;2023-02-13T05:58:46;33.63;;;17.35;;
1699;SDS011;847;48.058;7.810;2023-02-13T06:01:12;30.50;;;16.33;;
1699;SDS011;847;48.058;7.810;2023-02-13T06:03:39;24.85;;;15.93;;
1699;SDS011;847;48.058;7.810;2023-02-13T06:06:07;34.08;;;16.77;;
1699;SDS011;847;48.058;7.810;2023-02-13T06:08:34;24.45;;;14.68;;
1699;SDS011;847;48.058;7.810;2023-02-13T06:11:01;25.43;;;16.63;;
1699;SDS011;847;48.058;7.810;2023-02-13T06:13:29;26.70;;;17.40;;
1699;SDS011;847;48.058;7.810;2023-02-13T06:15:56;25.60;;;15.77;;
1699;SDS011;847;48.058;7.810;2023-02-13T06:18:22;22.63;;;14.83;;
1699;SDS011;847;48.058;7.810;2023-02-13T06:20:49;31.47;;;19.50;;
1699;SDS011;847;48.058;7.810;2023-02-13T06:23:17;23.67;;;17.95;;
1699;SDS011;847;48.058;7.810;2023-02-13T06:25:44;25.83;;;17.10;;
1699;SDS011;847;48.058;7.810;2023-02-13T06:28:11;31.90;;;17.65;;
1699;SDS011;847;48.058;7.810;2023-02-13T06:30:38;26.60;;;16.30;;
1699;SDS011;847;48.058;7.810;2023-02-13T06:33:04;67.13;;;19.33;;
1699;SDS011;847;48.058;7.810;2023-02-13T06:35:31;38.50;;;19.05;;
1699;SDS011;847;48.058;7.810;2023-02-13T06:37:58;57.90;;;17.60;;
1699;SDS011;847;48.058;7.810;2023-02-13T06:40:26;34.25;;;17.88;;
1699;SDS011;847;48.058;7.810;2023-02-13T06:42:53;36.67;;;19.67;;
1699;SDS011;847;48.058;7.810;2023-02-13T06:45:19;33.40;;;20.67;;
1699;SDS011;847;48.058;7.810;2023-02-13T06:47:47;49.95;;;21.65;;
1699;SDS011;847;48.058;7.810;2023-02-13T06:50:15;35.93;;;19.60;;
1699;SDS011;847;48.058;7.810;2023-02-13T06:52:45;31.73;;;19.15;;
1699;SDS011;847;48.058;7.810;2023-02-13T06:55:13;48.10;;;24.77;;
1699;SDS011;847;48.058;7.810;2023-02-13T06:57:42;35.30;;;22.47;;
1699;SDS011;847;48.058;7.810;2023-02-13T07:00:10;59.53;;;19.30;;
1699;SDS011;847;48.058;7.810;2023-02-13T07:02:38;33.60;;;19.53;;
1699;SDS011;847;48.058;7.810;2023-02-13T07:05:05;57.50;;;19.83;;
1699;SDS011;847;48.058;7.810;2023-02-13T07:07:33;38.33;;;17.58;;
1699;SDS011;847;48.058;7.810;2023-02-13T07:10:00;37.83;;;17.20;;
1699;SDS011;847;48.058;7.810;2023-02-13T07:12:28;70.43;;;19.73;;
1699;SDS011;847;48.058;7.810;2023-02-13T07:14:56;41.20;;;19.40;;
1699;SDS011;847;48.058;7.810;2023-02-13T07:17:22;32.60;;;18.30;;
1699;SDS011;847;48.058;7.810;2023-02-13T07:19:50;33.10;;;20.33;;
1699;SDS011;847;48.058;7.810;2023-02-13T07:22:17;35.20;;;20.20;;
1699;SDS011;847;48.058;7.810;2023-02-13T07:24:44;50.63;;;21.43;;
1699;SDS011;847;48.058;7.810;2023-02-13T07:27:10;45.60;;;19.80;;
1699;SDS011;847;48.058;7.810;2023-02-13T07:29:37;88.57;;;20.33;;
1699;SDS011;847;48.058;7.810;2023-02-13T07:32:05;86.40;;;21.63;;
1699;SDS011;847;48.058;7.810;2023-02-13T07:34:33;92.47;;;19.50;;
1699;SDS011;847;48.058;7.810;2023-02-13T07:36:59;67.00;;;18.37;;
1699;SDS011;847;48.058;7.810;2023-02-13T07:39:26;44.10;;;18.30;;
1699;SDS011;847;48.058;7.810;2023-02-13T07:41:55;68.73;;;18.60;;
1699;SDS011;847;48.058;7.810;2023-02-13T07:44:22;85.97;;;23.67;;
1699;SDS011;847;48.058;7.810;2023-02-13T07:46:49;37.83;;;17.13;;
1699;SDS011;847;48.058;7.810;2023-02-13T07:49:17;56.95;;;17.13;;
1699;SDS011;847;48.058;7.810;2023-02-13T07:51:43;29.50;;;16.80;;
1699;SDS011;847;48.058;7.810;2023-02-13T07:54:10;50.37;;;15.87;;
1699;SDS011;847;48.058;7.810;2023-02-13T07:56:37;29.30;;;16.00;;
1699;SDS011;847;48.058;7.810;2023-02-13T07:59:04;31.27;;;18.60;;
1699;SDS011;847;48.058;7.810;2023-02-13T08:01:30;64.30;;;18.20;;
1699;SDS011;847;48.058;7.810;2023-02-13T08:03:57;66.90;;;20.40;;
1699;SDS011;847;48.058;7.810;2023-02-13T08:06:25;31.80;;;18.92;;
1699;SDS011;847;48.058;7.810;2023-02-13T08:08:52;51.63;;;23.10;;
1699;SDS011;847;48.058;7.810;2023-02-13T08:11:39;42.33;;;19.67;;
1699;SDS011;847;48.058;7.810;2023-02-13T08:14:25;60.67;;;21.47;;
1699;SDS011;847;48.058;7.810;2023-02-13T08:16:53;53.90;;;22.57;;
1699;SDS011;847;48.058;7.810;2023-02-13T08:19:20;34.03;;;22.23;;
1699;SDS011;847;48.058;7.810;2023-02-13T08:21:48;39.20;;;18.60;;
1699;SDS011;847;48.058;7.810;2023-02-13T08:24:15;40.13;;;18.87;;
1699;SDS011;847;48.058;7.810;2023-02-13T08:26:42;41.20;;;18.87;;
1699;SDS011;847;48.058;7.810;2023-02-13T08:29:08;28.60;;;18.00;;
1699;SDS011;847;48.058;7.810;2023-02-13T08:31:35;27.93;;;17.03;;
1699;SDS011;847;48.058;7.810;2023-02-13T08:34:02;21.00;;;15.50;;
1699;SDS011;847;48.058;7.810;2023-02-13T08:36:29;22.50;;;15.27;;
1699;SDS011;847;48.058;7.810;2023-02-13T08:38:57;17.90;;;12.90;;
1699;SDS011;847;48.058;7.810;2023-02-13T08:41:24;16.97;;;13.20;;
1699;SDS011;847;48.058;7.810;2023-02-13T08:43:52;19.88;;;13.45;;
1699;SDS011;847;48.058;7.810;2023-02-13T08:46:19;18.83;;;13.13;;
1699;SDS011;847;48.058;7.810;2023-02-13T08:48:46;16.47;;;12.90;;
1699;SDS011;847;48.058;7.810;2023-02-13T08:51:13;19.23;;;14.27;;
1699;SDS011;847;48.058;7.810;2023-02-13T08:53:40;20.00;;;14.40;;
1699;SDS011;847;48.058;7.810;2023-02-13T08:56:09;18.70;;;13.67;;
1699;SDS011;847;48.058;7.810;2023-02-13T08:58:36;19.27;;;12.97;;
1699;SDS011;847;48.058;7.810;2023-02-13T09:01:06;16.43;;;13.60;;
1699;SDS011;847;48.058;7.810;2023-02-13T09:03:33;21.80;;;13.90;;
1699;SDS011;847;48.058;7.810;2023-02-13T09:06:00;20.50;;;14.90;;
1699;SDS011;847;48.058;7.810;2023-02-13T09:08:27;22.27;;;13.83;;
1699;SDS011;847;48.058;7.810;2023-02-13T09:10:54;559.53;;;49.03;;
1699;SDS011;847;48.058;7.810;2023-02-13T09:13:24;23.53;;;18.63;;
1699;SDS011;847;48.058;7.810;2023-02-13T09:15:51;25.80;;;14.80;;
1699;SDS011;847;48.058;7.810;2023-02-13T09:18:17;19.00;;;14.77;;
1699;SDS011;847;48.058;7.810;2023-02-13T09:20:44;18.80;;;13.07;;
1699;SDS011;847;48.058;7.810;2023-02-13T09:23:11;20.63;;;14.50;;
1699;SDS011;847;48.058;7.810;2023-02-13T09:25:37;26.73;;;19.77;;
1699;SDS011;847;48.058;7.810;2023-02-13T09:28:04;25.03;;;18.40;;
1699;SDS011;847;48.058;7.810;2023-02-13T09:30:32;19.80;;;14.80;;
1699;SDS011;847;48.058;7.810;2023-02-13T09:32:59;20.20;;;14.30;;
1699;SDS011;847;48.058;7.810;2023-02-13T09:35:26;17.70;;;12.90;;
1699;SDS011;847;48.058;7.810;2023-02-13T09:37:54;16.07;;;12.60;;
1699;SDS011;847;48.058;7.810;2023-02-13T09:40:22;19.63;;;16.03;;
1699;SDS011;847;48.058;7.810;2023-02-13T09:42:55;20.70;;;17.70;;
1699;SDS011;847;48.058;7.810;2023-02-13T09:45:30;16.83;;;14.10;;
1699;SDS011;847;48.058;7.810;2023-02-13T09:47:59;16.03;;;12.37;;
1699;SDS011;847;48.058;7.810;2023-02-13T09:50:27;18.73;;;13.60;;
1699;SDS011;847;48.058;7.810;2023-02-13T09:52:57;20.47;;;14.77;;
1699;SDS011;847;48.058;7.810;2023-02-13T09:55:26;18.23;;;14.10;;
1699;SDS011;847;48.058;7.810;2023-02-13T09:58:02;25.13;;;14.60;;
1699;SDS011;847;48.058;7.810;2023-02-13T10:00:37;19.80;;;15.40;;
1699;SDS011;847;48.058;7.810;2023-02-13T10:05:55;16.53;;;13.73;;
1699;SDS011;847;48.058;7.810;2023-02-13T10:08:41;33.00;;;25.53;;
1699;SDS011;847;48.058;7.810;2023-02-13T10:11:37;28.47;;;18.00;;
1699;SDS011;847;48.058;7.810;2023-02-13T10:14:17;21.93;;;14.43;;
1699;SDS011;847;48.058;7.810;2023-02-13T10:16:51;26.87;;;18.80;;
1699;SDS011;847;48.058;7.810;2023-02-13T10:19:28;25.53;;;18.80;;
1699;SDS011;847;48.058;7.810;2023-02-13T10:22:01;26.40;;;15.97;;
1699;SDS011;847;48.058;7.810;2023-02-13T10:24:32;26.23;;;19.20;;
1699;SDS011;847;48.058;7.810;2023-02-13T10:27:08;24.03;;;17.67;;
1699;SDS011;847;48.058;7.810;2023-02-13T10:29:44;30.70;;;19.73;;
1699;SDS011;847;48.058;7.810;2023-02-13T10:32:40;28.80;;;19.07;;
1699;SDS011;847;48.058;7.810;2023-02-13T10:35:19;28.87;;;21.13;;
1699;SDS011;847;48.058;7.810;2023-02-13T10:37:53;28.30;;;18.50;;
1699;SDS011;847;48.058;7.810;2023-02-13T10:40:22;30.97;;;22.00;;
1699;SDS011;847;48.058;7.810;2023-02-13T10:42:56;26.13;;;20.80;;
1699;SDS011;847;48.058;7.810;2023-02-13T10:45:37;30.97;;;19.70;;
1699;SDS011;847;48.058;7.810;2023-02-13T10:48:23;29.80;;;19.53;;
1699;SDS011;847;48.058;7.810;2023-02-13T10:51:00;31.20;;;23.43;;
1699;SDS011;847;48.058;7.810;2023-02-13T10:53:34;33.43;;;26.90;;
1699;SDS011;847;48.058;7.810;2023-02-13T10:56:22;42.60;;;32.40;;
1699;SDS011;847;48.058;7.810;2023-02-13T10:58:54;31.33;;;20.83;;
1699;SDS011;847;48.058;7.810;2023-02-13T11:01:31;34.27;;;23.37;;
1699;SDS011;847;48.058;7.810;2023-02-13T11:04:06;31.87;;;23.90;;
1699;SDS011;847;48.058;7.810;2023-02-13T11:06:35;31.93;;;23.33;;
1699;SDS011;847;48.058;7.810;2023-02-13T11:09:05;32.73;;;22.93;;
1699;SDS011;847;48.058;7.810;2023-02-13T11:11:33;35.63;;;23.40;;
1699;SDS011;847;48.058;7.810;2023-02-13T11:14:11;30.60;;;21.17;;
1699;SDS011;847;48.058;7.810;2023-02-13T11:16:40;38.53;;;26.03;;
1699;SDS011;847;48.058;7.810;2023-02-13T11:19:20;42.30;;;25.73;;
1699;SDS011;847;48.058;7.810;2023-02-13T11:21:52;33.00;;;23.57;;
1699;SDS011;847;48.058;7.810;2023-02-13T11:24:22;34.63;;;24.10;;
1699;SDS011;847;48.058;7.810;2023-02-13T11:26:51;38.07;;;23.93;;
1699;SDS011;847;48.058;7.810;2023-02-13T11:29:23;35.73;;;26.43;;
1699;SDS011;847;48.058;7.810;2023-02-13T11:34:49;35.90;;;23.67;;
1699;SDS011;847;48.058;7.810;2023-02-13T11:37:17;34.10;;;24.07;;
1699;SDS011;847;48.058;7.810;2023-02-13T11:39:47;42.33;;;24.00;;
1699;SDS011;847;48.058;7.810;2023-02-13T11:42:16;35.50;;;23.20;;
1699;SDS011;847;48.058;7.810;2023-02-13T11:44:48;36.07;;;24.57;;
1699;SDS011;847;48.058;7.810;2023-02-13T11:47:20;36.67;;;24.97;;
1699;SDS011;847;48.058;7.810;2023-02-13T11:50:01;35.33;;;23.07;;
1699;SDS011;847;48.058;7.810;2023-02-13T11:52:30;33.80;;;22.73;;
1699;SDS011;847;48.058;7.810;2023-02-13T11:54:59;32.40;;;22.33;;
1699;SDS011;847;48.058;7.810;2023-02-13T11:57:28;32.17;;;22.97;;
1699;SDS011;847;48.058;7.810;2023-02-13T11:59:57;33.70;;;21.67;;
1699;SDS011;847;48.058;7.810;2023-02-13T12:02:25;36.77;;;24.50;;
1699;SDS011;847;48.058;7.810;2023-02-13T12:04:53;36.13;;;23.27;;
1699;SDS011;847;48.058;7.810;2023-02-13T12:07:41;32.07;;;22.50;;
1699;SDS011;847;48.058;7.810;2023-02-13T12:10:14;34.37;;;23.90;;
1699;SDS011;847;48.058;7.810;2023-02-13T12:12:45;34.77;;;23.70;;
1699;SDS011;847;48.058;7.810;2023-02-13T12:15:19;36.80;;;26.20;;
1699;SDS011;847;48.058;7.810;2023-02-13T12:18:01;29.47;;;22.23;;
1699;SDS011;847;48.058;7.810;2023-02-13T12:20:34;32.37;;;22.40;;
1699;SDS011;847;48.058;7.810;2023-02-13T12:23:14;34.00;;;23.30;;
1699;SDS011;847;48.058;7.810;2023-02-13T12:28:50;32.60;;;22.50;;
1699;SDS011;847;48.058;7.810;2023-02-13T12:31:33;33.90;;;22.87;;
1699;SDS011;847;48.058;7.810;2023-02-13T12:34:22;33.50;;;22.53;;
1699;SDS011;847;48.058;7.810;2023-02-13T12:37:14;34.10;;;23.00;;
1699;SDS011;847;48.058;7.810;2023-02-13T12:39:57;34.20;;;22.60;;
1699;SDS011;847;48.058;7.810;2023-02-13T12:42:40;33.63;;;21.23;;
1699;SDS011;847;48.058;7.810;2023-02-13T12:45:15;33.10;;;22.80;;
1699;SDS011;847;48.058;7.810;2023-02-13T12:48:03;34.80;;;24.20;;
1699;SDS011;847;48.058;7.810;2023-02-13T12:50:52;35.67;;;23.83;;
1699;SDS011;847;48.058;7.810;2023-02-13T12:56:48;34.07;;;23.50;;
1699;SDS011;847;48.058;7.810;2023-02-13T12:59:27;31.20;;;22.90;;
1699;SDS011;847;48.058;7.810;2023-02-13T13:05:13;34.80;;;23.70;;
1699;SDS011;847;48.058;7.810;2023-02-13T13:07:49;35.67;;;24.17;;
1699;SDS011;847;48.058;7.810;2023-02-13T13:10:26;33.73;;;22.73;;
1699;SDS011;847;48.058;7.810;2023-02-13T13:13:09;32.23;;;22.87;;
1699;SDS011;847;48.058;7.810;2023-02-13T13:15:44;37.80;;;23.93;;
1699;SDS011;847;48.058;7.810;2023-02-13T13:18:24;35.13;;;24.17;;
1699;SDS011;847;48.058;7.810;2023-02-13T13:21:03;34.67;;;25.00;;
1699;SDS011;847;48.058;7.810;2023-02-13T13:23:41;34.70;;;23.93;;
1699;SDS011;847;48.058;7.810;2023-02-13T13:26:13;36.50;;;24.23;;
1699;SDS011;847;48.058;7.810;2023-02-13T13:28:49;33.17;;;23.57;;
1699;SDS011;847;48.058;7.810;2023-02-13T13:31:20;39.47;;;25.20;;
1699;SDS011;847;48.058;7.810;2023-02-13T13:33:50;32.70;;;23.37;;
1699;SDS011;847;48.058;7.810;2023-02-13T13:36:20;35.37;;;23.57;;
1699;SDS011;847;48.058;7.810;2023-02-13T13:38:59;33.60;;;22.47;;
1699;SDS011;847;48.058;7.810;2023-02-13T13:41:33;35.00;;;24.40;;
1699;SDS011;847;48.058;7.810;2023-02-13T13:44:12;36.47;;;24.70;;
1699;SDS011;847;48.058;7.810;2023-02-13T13:46:49;40.70;;;27.00;;
1699;SDS011;847;48.058;7.810;2023-02-13T13:49:31;39.23;;;26.63;;
1699;SDS011;847;48.058;7.810;2023-02-13T13:52:18;34.43;;;23.37;;
1699;SDS011;847;48.058;7.810;2023-02-13T13:54:48;39.97;;;27.70;;
1699;SDS011;847;48.058;7.810;2023-02-13T13:57:17;35.30;;;24.23;;
1699;SDS011;847;48.058;7.810;2023-02-13T14:03:12;38.97;;;23.97;;
1699;SDS011;847;48.058;7.810;2023-02-13T14:05:55;39.70;;;25.17;;
1699;SDS011;847;48.058;7.810;2023-02-13T14:11:24;40.73;;;27.20;;
1699;SDS011;847;48.058;7.810;2023-02-13T14:13:54;37.70;;;25.10;;
1699;SDS011;847;48.058;7.810;2023-02-13T14:16:38;39.73;;;25.10;;
1699;SDS011;847;48.058;7.810;2023-02-13T14:19:23;34.43;;;23.43;;
1699;SDS011;847;48.058;7.810;2023-02-13T14:21:52;33.93;;;23.10;;
1699;SDS011;847;48.058;7.810;2023-02-13T14:24:21;36.33;;;24.00;;
1699;SDS011;847;48.058;7.810;2023-02-13T14:26:51;38.00;;;23.80;;
1699;SDS011;847;48.058;7.810;2023-02-13T14:29:21;41.23;;;24.40;;
1699;SDS011;847;48.058;7.810;2023-02-13T14:32:13;36.90;;;23.27;;
1699;SDS011;847;48.058;7.810;2023-02-13T14:34:50;33.43;;;22.70;;
1699;SDS011;847;48.058;7.810;2023-02-13T14:37:20;35.57;;;22.70;;
1699;SDS011;847;48.058;7.810;2023-02-13T14:43:00;33.10;;;22.93;;
1699;SDS011;847;48.058;7.810;2023-02-13T14:45:33;36.90;;;23.23;;
1699;SDS011;847;48.058;7.810;2023-02-13T14:48:14;36.30;;;24.07;;
1699;SDS011;847;48.058;7.810;2023-02-13T14:50:43;32.17;;;22.17;;
1699;SDS011;847;48.058;7.810;2023-02-13T14:53:17;33.00;;;22.30;;
1699;SDS011;847;48.058;7.810;2023-02-13T14:55:50;36.30;;;25.07;;
1699;SDS011;847;48.058;7.810;2023-02-13T14:58:24;30.87;;;21.73;;
1699;SDS011;847;48.058;7.810;2023-02-13T15:00:56;36.43;;;24.57;;
1699;SDS011;847;48.058;7.810;2023-02-13T15:03:28;33.10;;;23.37;;
1699;SDS011;847;48.058;7.810;2023-02-13T15:06:02;35.67;;;23.87;;
1699;SDS011;847;48.058;7.810;2023-02-13T15:08:33;36.13;;;23.97;;
1699;SDS011;847;48.058;7.810;2023-02-13T15:11:03;34.57;;;24.20;;
1699;SDS011;847;48.058;7.810;2023-02-13T15:13:50;31.27;;;23.27;;
1699;SDS011;847;48.058;7.810;2023-02-13T15:16:17;38.67;;;22.93;;
1699;SDS011;847;48.058;7.810;2023-02-13T15:18:46;37.80;;;25.23;;
1699;SDS011;847;48.058;7.810;2023-02-13T15:21:17;35.17;;;25.00;;
1699;SDS011;847;48.058;7.810;2023-02-13T15:23:48;35.67;;;24.90;;
1699;SDS011;847;48.058;7.810;2023-02-13T15:26:18;34.73;;;24.40;;
1699;SDS011;847;48.058;7.810;2023-02-13T15:28:57;37.70;;;23.93;;
1699;SDS011;847;48.058;7.810;2023-02-13T15:31:29;36.27;;;24.60;;
1699;SDS011;847;48.058;7.810;2023-02-13T15:34:00;35.70;;;23.00;;
1699;SDS011;847;48.058;7.810;2023-02-13T15:36:33;41.57;;;26.20;;
1699;SDS011;847;48.058;7.810;2023-02-13T15:39:03;33.90;;;23.33;;
1699;SDS011;847;48.058;7.810;2023-02-13T15:41:34;38.10;;;24.90;;
1699;SDS011;847;48.058;7.810;2023-02-13T15:44:04;39.93;;;24.37;;
1699;SDS011;847;48.058;7.810;2023-02-13T15:46:32;42.93;;;27.83;;
1699;SDS011;847;48.058;7.810;2023-02-13T15:49:05;37.70;;;26.00;;
1699;SDS011;847;48.058;7.810;2023-02-13T15:51:34;41.23;;;26.77;;
1699;SDS011;847;48.058;7.810;2023-02-13T15:54:02;41.73;;;27.40;;
1699;SDS011;847;48.058;7.810;2023-02-13T15:56:31;38.93;;;27.53;;
1699;SDS011;847;48.058;7.810;2023-02-13T15:59:00;39.90;;;26.20;;
1699;SDS011;847;48.058;7.810;2023-02-13T16:01:28;43.77;;;27.60;;
1699;SDS011;847;48.058;7.810;2023-02-13T16:03:58;41.60;;;26.00;;